Futaleufu Airport


Codes: SCFT/FFU
Name: Futaleufu Airport
City: Futaleufu
Country: Chile
Elevation: 1148 ft.

Photos at Futaleufu Airport


   Photos courtesy of SpottingLog. You can add your own sightings and photos by signing up for a free trial today.



No photos found.

Weather at Futaleufu Airport


Time (UTC)DescriptionTempratureWindCloud coverageVisibilityPressureHumidity
15-Apr-2024 18:00Broken Clouds11°C7 mph, W75%10000m1014hPa87%
15-Apr-2024 21:00Light Rain12°C7 mph, W67%10000m1013hPa88%
16-Apr-2024 00:00Light Rain11°C4 mph, W65%10000m1013hPa94%
16-Apr-2024 03:00Light Rain10°C4 mph, W90%6006m1013hPa99%
16-Apr-2024 06:00Light Rain10°C7 mph, W95%3264m1013hPa99%
16-Apr-2024 09:00Light Rain10°C4 mph, W100%10000m1012hPa98%
16-Apr-2024 12:00Light Rain10°C7 mph, W100%4175m1013hPa98%
16-Apr-2024 15:00Light Rain12°C7 mph, W96%8388m1013hPa90%
16-Apr-2024 18:00Light Rain13°C9 mph, W65%10000m1013hPa70%
16-Apr-2024 21:00Light Rain11°C7 mph, W47%10000m1015hPa85%
17-Apr-2024 00:00Scattered Clouds8°C7 mph, W43%10000m1019hPa98%
17-Apr-2024 03:00Scattered Clouds7°C7 mph, W50%6154m1020hPa98%
17-Apr-2024 06:00Broken Clouds7°C7 mph, W71%10000m1021hPa96%
17-Apr-2024 09:00Overcast Clouds7°C4 mph, W97%10000m1021hPa94%
17-Apr-2024 12:00Overcast Clouds7°C4 mph, W96%10000m1022hPa92%
17-Apr-2024 15:00Broken Clouds11°C2 mph, W69%10000m1020hPa75%
17-Apr-2024 18:00Scattered Clouds15°C4 mph, W46%10000m1018hPa57%
17-Apr-2024 21:00Few Clouds14°C2 mph, W11%10000m1016hPa69%
18-Apr-2024 00:00Few Clouds9°C2 mph, NW15%10000m1018hPa86%
18-Apr-2024 03:00Scattered Clouds8°C2 mph, N46%10000m1017hPa82%
18-Apr-2024 06:00Broken Clouds8°C2 mph, N72%10000m1014hPa76%
18-Apr-2024 09:00Broken Clouds8°C2 mph, N54%10000m1011hPa76%
18-Apr-2024 12:00Broken Clouds9°C4 mph, N76%10000m1009hPa79%
18-Apr-2024 15:00Overcast Clouds16°C4 mph, W100%10000m1004hPa62%
18-Apr-2024 18:00Moderate Rain11°C7 mph, NW94%10000m1005hPa94%
18-Apr-2024 21:00Light Rain11°C7 mph, W99%5602m1006hPa97%
19-Apr-2024 00:00Light Rain9°C4 mph, W91%10000m1007hPa98%
19-Apr-2024 03:00Moderate Rain8°C4 mph, W94%2805m1009hPa97%
19-Apr-2024 06:00Light Rain7°C7 mph, NW97%74m1011hPa98%
19-Apr-2024 09:00Moderate Rain5°C7 mph, NW100%42m1010hPa99%
19-Apr-2024 12:00Moderate Rain5°C7 mph, NW100%47m1011hPa99%
19-Apr-2024 15:00Light Rain6°C7 mph, NW100%55m1012hPa98%
19-Apr-2024 18:00Light Rain7°C9 mph, NW100%93m1011hPa98%
19-Apr-2024 21:00Light Rain6°C7 mph, NW96%60m1012hPa98%
20-Apr-2024 00:00Moderate Rain5°C7 mph, NW98%68m1013hPa99%
20-Apr-2024 03:00Light Rain6°C7 mph, NW100%54m1013hPa99%
20-Apr-2024 06:00Moderate Rain5°C7 mph, NW100%64m1012hPa99%
20-Apr-2024 09:00Snow5°C7 mph, NW100%86m1012hPa99%
20-Apr-2024 12:00Light Rain5°C7 mph, NW99%9032m1012hPa97%
20-Apr-2024 15:00Light Rain6°C9 mph, NW94%2020m1013hPa96%